Time;durP1;ratioP1;P1;durP2;ratioP2;P2;SDS_P1;SDS_P2;PMS_P1;PMS_P2;Temp;Humidity;BMP_temperature;BMP_pressure;BME280_temperature;BME280_humidity;BME280_pressure;Samples;Min_cycle;Max_cycle;Signal;HPM_P1;HPM_P2
2021/09/02 00:01:09;;;;;;;88.88;29.73;;;;;;;-145.01;100.00;64805.59;4993710;28;20038;-63
2021/09/02 00:03:35;;;;;;;119.30;33.83;;;;;;;-145.01;100.00;64805.59;4993960;28;20037;-64
2021/09/02 00:06:00;;;;;;;117.43;35.05;;;;;;;-145.01;100.00;64805.59;4992289;28;20038;-63
2021/09/02 00:08:25;;;;;;;126.68;32.40;;;;;;;-145.01;100.00;64805.59;4994146;28;20077;-64
2021/09/02 00:10:51;;;;;;;109.25;34.38;;;;;;;-145.01;100.00;64805.59;4991987;28;20116;-64
2021/09/02 00:13:16;;;;;;;107.05;32.65;;;;;;;-145.01;100.00;64805.59;4992751;28;20539;-63
2021/09/02 00:15:42;;;;;;;97.65;31.17;;;;;;;-145.01;100.00;64805.59;4993394;28;20774;-64
2021/09/02 00:18:07;;;;;;;110.82;33.60;;;;;;;-145.01;100.00;64805.59;4993778;28;20041;-63
2021/09/02 00:20:33;;;;;;;116.82;34.20;;;;;;;-145.01;100.00;64805.59;4993230;28;20037;-63
2021/09/02 00:22:58;;;;;;;113.50;33.28;;;;;;;-145.01;100.00;64805.59;4992373;28;20077;-63
2021/09/02 00:25:24;;;;;;;94.18;30.38;;;;;;;-145.01;100.00;64805.59;4993474;28;20381;-63
2021/09/02 00:27:49;;;;;;;77.70;27.73;;;;;;;-145.01;100.00;64805.59;4992320;28;20027;-63
2021/09/02 00:30:15;;;;;;;75.97;25.73;;;;;;;-145.01;100.00;64805.59;4991984;28;20034;-64
2021/09/02 00:32:40;;;;;;;83.20;28.90;;;;;;;-145.01;100.00;64805.59;4993647;28;20018;-63
2021/09/02 00:35:06;;;;;;;96.10;31.88;;;;;;;-145.01;100.00;64805.59;4993071;28;20026;-64
2021/09/02 00:37:32;;;;;;;108.32;33.80;;;;;;;-145.01;100.00;64805.59;4993376;28;20026;-64
2021/09/02 00:39:57;;;;;;;129.05;34.88;;;;;;;-145.01;100.00;64805.59;4990170;28;20026;-63
2021/09/02 00:42:22;;;;;;;115.45;33.30;;;;;;;-145.01;100.00;64805.59;4991592;28;20069;-63
2021/09/02 00:44:48;;;;;;;98.18;31.75;;;;;;;-145.01;100.00;64805.59;4993353;28;20473;-63
2021/09/02 00:47:18;;;;;;;98.88;32.90;;;;;;;-145.01;100.00;64805.59;4992848;28;20478;-63
2021/09/02 00:49:44;;;;;;;103.63;30.92;;;;;;;-145.01;100.00;64805.59;4993142;28;20030;-63
2021/09/02 00:52:17;;;;;;;98.35;31.50;;;;;;;-145.01;100.00;64805.59;4992844;28;20035;-63
2021/09/02 00:54:46;;;;;;;92.10;30.33;;;;;;;-145.01;100.00;64805.59;4975369;28;20370;-63
2021/09/02 00:57:12;;;;;;;95.70;29.17;;;;;;;-145.01;100.00;64805.59;4971712;28;20042;-63
2021/09/02 00:59:38;;;;;;;84.25;28.98;;;;;;;-145.01;100.00;64805.59;4973823;28;20086;-63
2021/09/02 01:02:03;;;;;;;91.22;30.50;;;;;;;-145.01;100.00;64805.59;4972018;28;20039;-64
2021/09/02 01:04:29;;;;;;;108.03;32.60;;;;;;;-145.01;100.00;64805.59;4973485;28;20027;-63
2021/09/02 01:06:55;;;;;;;137.60;36.72;;;;;;;-145.01;100.00;64805.59;4973404;28;20448;-64
2021/09/02 01:09:20;;;;;;;176.10;40.00;;;;;;;-145.01;100.00;64805.59;4972431;28;20027;-63
2021/09/02 01:11:46;;;;;;;173.48;39.80;;;;;;;-145.01;100.00;64805.59;4973301;28;20397;-63
2021/09/02 01:14:17;;;;;;;155.18;39.45;;;;;;;-145.01;100.00;64805.59;4973738;28;20031;-63
2021/09/02 01:16:45;;;;;;;144.13;34.22;;;;;;;-145.01;100.00;64805.59;4973288;28;20043;-64
2021/09/02 01:19:11;;;;;;;168.65;40.08;;;;;;;-145.01;100.00;64805.59;4973800;28;20089;-64
2021/09/02 01:21:36;;;;;;;179.75;41.97;;;;;;;-145.01;100.00;64805.59;4973316;28;20043;-64
2021/09/02 01:24:02;;;;;;;171.10;39.88;;;;;;;-145.01;100.00;64805.59;4973776;28;20031;-65
2021/09/02 01:26:27;;;;;;;167.55;39.22;;;;;;;-145.01;100.00;64805.59;4955995;28;20043;-64
2021/09/02 01:28:53;;;;;;;205.85;44.55;;;;;;;-145.01;100.00;64805.59;4973555;28;20390;-64
2021/09/02 01:31:19;;;;;;;182.88;38.42;;;;;;;-145.01;100.00;64805.59;4973001;28;20518;-64
2021/09/02 01:33:45;;;;;;;196.63;45.47;;;;;;;-145.01;100.00;64805.59;4972500;28;20030;-64
2021/09/02 01:36:10;;;;;;;179.75;43.85;;;;;;;-145.01;100.00;64805.59;4973315;28;20093;-64
2021/09/02 01:38:36;;;;;;;185.70;40.92;;;;;;;-145.01;100.00;64805.59;4973535;28;20034;-64
2021/09/02 01:41:01;;;;;;;158.75;39.50;;;;;;;-145.01;100.00;64805.59;4973247;28;20122;-64
2021/09/02 01:43:27;;;;;;;121.00;34.15;;;;;;;-145.01;100.00;64805.59;4972561;28;20465;-64
2021/09/02 01:45:52;;;;;;;149.40;38.60;;;;;;;-145.01;100.00;64805.59;4973438;28;20039;-64
2021/09/02 01:48:18;;;;;;;108.97;33.13;;;;;;;-145.01;100.00;64805.59;4973780;28;20035;-64
2021/09/02 01:50:43;;;;;;;152.82;37.65;;;;;;;-145.01;100.00;64805.59;4973043;28;20035;-65
2021/09/02 01:53:10;;;;;;;166.70;41.65;;;;;;;-145.01;100.00;64805.59;4972090;28;20474;-64
2021/09/02 01:55:36;;;;;;;223.02;42.38;;;;;;;-145.01;100.00;64805.59;4973207;28;20137;-64
2021/09/02 01:58:02;;;;;;;237.02;48.65;;;;;;;-145.01;100.00;64805.59;4972033;28;20031;-64
2021/09/02 02:00:27;;;;;;;221.43;44.50;;;;;;;-145.01;100.00;64805.59;4972878;28;20039;-64
2021/09/02 02:02:52;;;;;;;257.73;48.50;;;;;;;-145.01;100.00;64805.59;4973404;28;20462;-64
2021/09/02 02:05:18;;;;;;;229.85;44.28;;;;;;;-145.01;100.00;64805.59;4973053;28;20046;-64
2021/09/02 02:07:43;;;;;;;205.00;44.50;;;;;;;-145.01;100.00;64805.59;5004631;28;20513;-64
2021/09/02 02:10:11;;;;;;;209.10;46.42;;;;;;;-145.01;100.00;64805.59;4971341;28;20055;-64
2021/09/02 02:12:37;;;;;;;107.93;33.70;;;;;;;-145.01;100.00;64805.59;4971971;28;20282;-64
2021/09/02 02:15:03;;;;;;;73.00;25.70;;;;;;;-145.01;100.00;64805.59;4972756;28;20055;-64
2021/09/02 02:17:29;;;;;;;90.25;29.17;;;;;;;-145.01;100.00;64805.59;4974815;28;20373;-64
2021/09/02 02:19:54;;;;;;;106.93;29.63;;;;;;;-145.01;100.00;64805.59;4976665;28;20038;-64
2021/09/02 02:22:20;;;;;;;237.23;36.55;;;;;;;-145.01;100.00;64805.59;4976207;28;20238;-64
2021/09/02 02:24:45;;;;;;;202.30;40.60;;;;;;;-145.01;100.00;64805.59;4976670;28;20023;-64
2021/09/02 02:27:10;;;;;;;327.60;41.35;;;;;;;-145.01;100.00;64805.59;4976227;28;20038;-64
2021/09/02 02:29:36;;;;;;;581.83;44.30;;;;;;;-145.01;100.00;64805.59;4976562;28;20031;-64
2021/09/02 02:32:02;;;;;;;983.42;51.63;;;;;;;-145.01;100.00;64805.59;4974801;28;20031;-64
2021/09/02 02:34:27;;;;;;;836.95;50.72;;;;;;;-145.01;100.00;64805.59;4976570;28;20057;-64
2021/09/02 02:36:53;;;;;;;866.55;48.33;;;;;;;-145.01;100.00;64805.59;4976135;28;20030;-64
2021/09/02 02:39:18;;;;;;;692.65;53.40;;;;;;;-145.01;100.00;64805.59;4976344;28;20038;-64
2021/09/02 02:41:43;;;;;;;479.58;47.95;;;;;;;-145.01;100.00;64805.59;4974806;28;20035;-64
2021/09/02 02:44:09;;;;;;;631.47;43.53;;;;;;;-145.01;100.00;64805.59;4976279;28;20027;-64
2021/09/02 02:46:34;;;;;;;324.65;40.55;;;;;;;-145.01;100.00;64805.59;4975767;28;20347;-64
2021/09/02 02:49:00;;;;;;;209.80;35.35;;;;;;;-145.01;100.00;64805.59;4983386;28;20461;-65
2021/09/02 02:51:25;;;;;;;188.85;34.55;;;;;;;-145.01;100.00;64805.59;4993835;28;20042;-64
2021/09/02 02:53:51;;;;;;;179.15;37.45;;;;;;;-145.01;100.00;64805.59;4995527;28;20030;-65
2021/09/02 02:56:16;;;;;;;429.83;39.50;;;;;;;-145.01;100.00;64805.59;4995053;28;20038;-65
2021/09/02 02:58:41;;;;;;;387.70;40.28;;;;;;;-145.01;100.00;64805.59;4995353;28;20041;-64
2021/09/02 03:01:07;;;;;;;489.88;42.75;;;;;;;-145.01;100.00;64805.59;4995004;28;20085;-65
2021/09/02 03:03:32;;;;;;;521.42;42.70;;;;;;;-145.01;100.00;64805.59;4995283;28;20018;-65
2021/09/02 03:05:58;;;;;;;292.08;38.42;;;;;;;-145.01;100.00;64805.59;4995020;28;20027;-64
2021/09/02 03:08:23;;;;;;;306.35;40.42;;;;;;;-145.01;100.00;64805.59;4995426;28;20026;-64
2021/09/02 03:10:49;;;;;;;492.02;36.90;;;;;;;-145.01;100.00;64805.59;4994524;28;20498;-64
2021/09/02 03:13:14;;;;;;;368.05;38.72;;;;;;;-145.01;100.00;64805.59;4995119;28;20019;-64
2021/09/02 03:15:39;;;;;;;298.10;37.20;;;;;;;-145.01;100.00;64805.59;4994608;28;20093;-64
2021/09/02 03:18:05;;;;;;;305.08;35.53;;;;;;;-145.01;100.00;64805.59;4995234;28;20026;-64
2021/09/02 03:20:30;;;;;;;542.85;37.40;;;;;;;-145.01;100.00;64805.59;4994683;28;20508;-64
2021/09/02 03:22:56;;;;;;;569.33;38.83;;;;;;;-145.01;100.00;64805.59;4994982;28;20030;-64
2021/09/02 03:25:21;;;;;;;613.47;38.38;;;;;;;-145.01;100.00;64805.59;4993359;28;20040;-64
2021/09/02 03:27:47;;;;;;;453.60;35.28;;;;;;;-145.01;100.00;64805.59;4993757;28;20041;-64
2021/09/02 03:30:12;;;;;;;360.58;33.78;;;;;;;-145.01;100.00;64805.59;4994262;28;20022;-64
2021/09/02 03:32:38;;;;;;;452.75;38.28;;;;;;;-145.01;100.00;64805.59;4994746;28;20053;-64
2021/09/02 03:35:04;;;;;;;371.20;37.53;;;;;;;-145.01;100.00;64805.59;4994215;28;20030;-64
2021/09/02 03:37:30;;;;;;;228.50;37.30;;;;;;;-145.01;100.00;64805.59;4994631;28;20030;-64
2021/09/02 03:39:55;;;;;;;581.53;41.83;;;;;;;-145.01;100.00;64805.59;4994567;28;20026;-64
2021/09/02 03:42:20;;;;;;;329.63;38.08;;;;;;;-145.01;100.00;64805.59;4992758;28;20047;-64
2021/09/02 03:44:46;;;;;;;193.98;35.28;;;;;;;-145.01;100.00;64805.59;4994545;28;20027;-64
2021/09/02 03:47:11;;;;;;;186.48;32.13;;;;;;;-145.01;100.00;64805.59;4994215;28;20034;-64
2021/09/02 03:49:37;;;;;;;185.95;33.67;;;;;;;-145.01;100.00;64805.59;4993392;28;20034;-64
2021/09/02 03:52:02;;;;;;;197.95;34.88;;;;;;;-145.01;100.00;64805.59;4992885;28;20564;-64
2021/09/02 03:54:28;;;;;;;191.20;33.80;;;;;;;-145.01;100.00;64805.59;4993106;28;20494;-64
2021/09/02 03:56:53;;;;;;;382.08;36.35;;;;;;;-145.01;100.00;64805.59;4993925;28;20081;-64
2021/09/02 03:59:19;;;;;;;239.40;33.22;;;;;;;-145.01;100.00;64805.59;4992930;28;20030;-64
2021/09/02 04:01:44;;;;;;;413.55;34.33;;;;;;;-145.01;100.00;64805.59;4993964;28;20057;-64
2021/09/02 04:04:10;;;;;;;317.77;32.63;;;;;;;-145.01;100.00;64805.59;4994392;28;20385;-64
2021/09/02 04:06:35;;;;;;;156.85;31.05;;;;;;;-145.01;100.00;64805.59;4993819;28;20034;-64
2021/09/02 04:09:00;;;;;;;304.33;34.00;;;;;;;-145.01;100.00;64805.59;4994096;28;20022;-64
2021/09/02 04:11:26;;;;;;;400.95;35.42;;;;;;;-145.01;100.00;64805.59;4992304;28;20045;-64
2021/09/02 04:13:51;;;;;;;589.05;35.90;;;;;;;-145.01;100.00;64805.59;4994084;28;20067;-64
2021/09/02 04:16:17;;;;;;;616.97;37.10;;;;;;;-145.01;100.00;64805.59;4993778;28;20049;-64
2021/09/02 04:18:42;;;;;;;792.47;39.47;;;;;;;-145.01;100.00;64805.59;4994101;28;20042;-64
2021/09/02 04:21:08;;;;;;;738.08;38.97;;;;;;;-145.01;100.00;64805.59;4993697;28;20043;-64
2021/09/02 04:23:33;;;;;;;725.13;36.92;;;;;;;-145.01;100.00;64805.59;4993973;28;20117;-64
2021/09/02 04:26:00;;;;;;;774.38;39.75;;;;;;;-145.01;100.00;64805.59;4992376;28;20030;-64
2021/09/02 04:28:25;;;;;;;581.67;38.78;;;;;;;-145.01;100.00;64805.59;4992586;28;20360;-64
2021/09/02 04:30:51;;;;;;;465.08;35.88;;;;;;;-145.01;100.00;64805.59;4992467;28;20030;-64
2021/09/02 04:33:16;;;;;;;717.72;42.97;;;;;;;-145.01;100.00;64805.59;4994054;28;20027;-64
2021/09/02 04:35:41;;;;;;;784.65;39.00;;;;;;;-145.01;100.00;64805.59;4993523;28;20405;-64
2021/09/02 04:38:07;;;;;;;839.28;38.85;;;;;;;-145.01;100.00;64805.59;4992540;28;20030;-64
2021/09/02 04:40:32;;;;;;;539.20;36.60;;;;;;;-145.01;100.00;64805.59;4993002;28;20022;-64
2021/09/02 04:42:58;;;;;;;368.77;34.08;;;;;;;-145.01;100.00;64805.59;4992505;28;20412;-64
2021/09/02 04:45:23;;;;;;;781.30;40.63;;;;;;;-145.01;100.00;64805.59;4993281;28;20112;-64
2021/09/02 04:47:50;;;;;;;862.28;40.33;;;;;;;-145.01;100.00;64805.59;4993614;28;20498;-63
2021/09/02 04:50:16;;;;;;;709.78;35.95;;;;;;;-145.01;100.00;64805.59;4992133;28;20030;-65
2021/09/02 04:52:41;;;;;;;665.40;35.72;;;;;;;-145.01;100.00;64805.59;4992408;28;20031;-64
2021/09/02 04:55:08;;;;;;;667.53;32.60;;;;;;;-145.01;100.00;64805.59;4993131;28;20358;-64
2021/09/02 04:57:33;;;;;;;717.10;31.65;;;;;;;-145.01;100.00;64805.59;4992374;28;20026;-64
2021/09/02 04:59:59;;;;;;;787.88;36.15;;;;;;;-145.01;100.00;64805.59;4993636;28;20030;-64
2021/09/02 05:02:24;;;;;;;538.45;31.50;;;;;;;-145.01;100.00;64805.59;4993120;28;20046;-64
2021/09/02 05:04:50;;;;;;;516.38;29.40;;;;;;;-145.01;100.00;64805.59;4992343;28;20030;-64
2021/09/02 05:07:15;;;;;;;578.42;34.08;;;;;;;-145.01;100.00;64805.59;4991839;28;20085;-64
2021/09/02 05:09:41;;;;;;;551.92;36.10;;;;;;;-145.01;100.00;64805.59;4993354;28;20501;-64
2021/09/02 05:12:06;;;;;;;766.60;37.92;;;;;;;-145.01;100.00;64805.59;4993041;28;20035;-64
2021/09/02 05:14:32;;;;;;;621.65;36.92;;;;;;;-145.01;100.00;64805.59;4993408;28;20106;-64
2021/09/02 05:16:57;;;;;;;653.80;36.25;;;;;;;-145.01;100.00;64805.59;4991678;28;20034;-64
2021/09/02 05:19:23;;;;;;;491.55;33.95;;;;;;;-145.01;100.00;64805.59;4975796;28;20034;-64
2021/09/02 05:21:48;;;;;;;624.72;35.28;;;;;;;-145.01;100.00;64805.59;4992914;28;20030;-64
2021/09/02 05:24:13;;;;;;;641.85;33.45;;;;;;;-145.01;100.00;64805.59;4993202;28;20035;-64
2021/09/02 05:26:39;;;;;;;778.75;34.58;;;;;;;-145.01;100.00;64805.59;4992768;28;20370;-64
2021/09/02 05:29:04;;;;;;;535.78;33.15;;;;;;;-145.01;100.00;64805.59;4993281;28;20026;-64
2021/09/02 05:31:30;;;;;;;363.83;33.88;;;;;;;-145.01;100.00;64805.59;4993133;28;20042;-65
2021/09/02 05:33:55;;;;;;;220.05;31.10;;;;;;;-145.01;100.00;64805.59;4992380;28;20042;-64
2021/09/02 05:36:21;;;;;;;559.08;35.35;;;;;;;-145.01;100.00;64805.59;4992873;28;20393;-64
2021/09/02 05:38:46;;;;;;;344.25;29.17;;;;;;;-145.01;100.00;64805.59;4993204;28;20462;-64
2021/09/02 05:41:12;;;;;;;520.90;27.85;;;;;;;-145.01;100.00;64805.59;4992755;28;20114;-64
2021/09/02 05:43:37;;;;;;;489.48;29.40;;;;;;;-145.01;100.00;64805.59;4992988;28;20031;-64
2021/09/02 05:46:02;;;;;;;644.90;33.55;;;;;;;-145.01;100.00;64805.59;4992771;28;20481;-64
2021/09/02 05:48:28;;;;;;;473.48;33.88;;;;;;;-145.01;100.00;64805.59;4992849;28;20367;-64
2021/09/02 05:50:53;;;;;;;504.98;29.05;;;;;;;-145.01;100.00;64805.59;4992969;28;20033;-64
2021/09/02 05:53:20;;;;;;;344.30;34.78;;;;;;;-145.01;100.00;64805.59;4996695;28;20073;-64
2021/09/02 05:55:45;;;;;;;169.07;28.25;;;;;;;-145.01;100.00;64805.59;4995055;28;20516;-64
2021/09/02 05:58:11;;;;;;;488.80;30.00;;;;;;;-145.01;100.00;64805.59;4996574;28;20038;-64
2021/09/02 06:00:36;;;;;;;303.77;31.05;;;;;;;-145.01;100.00;64805.59;4996457;28;20046;-64
2021/09/02 06:03:02;;;;;;;293.83;29.30;;;;;;;-145.01;100.00;64805.59;4996474;28;20029;-64
2021/09/02 06:05:27;;;;;;;174.38;29.85;;;;;;;-145.01;100.00;64805.59;4996207;28;20043;-64
2021/09/02 06:07:52;;;;;;;190.82;29.83;;;;;;;-145.01;100.00;64805.59;4995203;28;20022;-64
2021/09/02 06:10:18;;;;;;;145.93;30.45;;;;;;;-145.01;100.00;64805.59;4995812;28;20057;-64
2021/09/02 06:12:43;;;;;;;510.92;32.55;;;;;;;-145.01;100.00;64805.59;4978821;28;20034;-64
2021/09/02 06:15:10;;;;;;;582.20;30.45;;;;;;;-145.01;100.00;64805.59;4995918;28;20026;-64
2021/09/02 06:17:35;;;;;;;188.10;30.65;;;;;;;-145.01;100.00;64805.59;4996460;28;20083;-63
2021/09/02 06:20:01;;;;;;;450.15;29.63;;;;;;;-145.01;100.00;64805.59;4994483;28;20344;-64
2021/09/02 06:22:26;;;;;;;352.10;27.73;;;;;;;-145.01;100.00;64805.59;4994905;28;20026;-64
2021/09/02 06:24:51;;;;;;;357.65;27.10;;;;;;;-145.01;100.00;64805.59;4996088;28;20023;-64
2021/09/02 06:27:17;;;;;;;242.75;26.17;;;;;;;-145.01;100.00;64805.59;4995900;28;20038;-64
2021/09/02 06:29:42;;;;;;;210.25;25.63;;;;;;;-145.01;100.00;64805.59;4996098;28;20469;-64
2021/09/02 06:32:08;;;;;;;199.40;25.08;;;;;;;-145.01;100.00;64805.59;4995487;28;20069;-64
2021/09/02 06:34:33;;;;;;;170.45;26.83;;;;;;;-145.01;100.00;64805.59;4978679;28;20061;-64
2021/09/02 06:36:58;;;;;;;135.30;27.48;;;;;;;-145.01;100.00;64805.59;4995668;28;20041;-64
2021/09/02 06:39:24;;;;;;;149.70;26.67;;;;;;;-145.01;100.00;64805.59;4995970;28;20052;-64
2021/09/02 06:41:49;;;;;;;129.27;26.13;;;;;;;-145.01;100.00;64805.59;4995323;28;20382;-64
2021/09/02 06:44:15;;;;;;;191.30;27.10;;;;;;;-145.01;100.00;64805.59;4995786;28;20491;-64
2021/09/02 06:46:40;;;;;;;227.30;25.45;;;;;;;-145.01;100.00;64805.59;4995256;28;20038;-64
2021/09/02 06:49:06;;;;;;;93.70;27.00;;;;;;;-145.01;100.00;64805.59;4995782;28;20041;-64
2021/09/02 06:51:31;;;;;;;88.50;27.55;;;;;;;-145.01;100.00;64805.59;4995277;28;20037;-64
2021/09/02 06:53:57;;;;;;;72.63;25.42;;;;;;;-145.01;100.00;64805.59;4995235;28;20019;-64
2021/09/02 06:56:22;;;;;;;138.93;28.98;;;;;;;-145.01;100.00;64805.59;4995289;28;20548;-64
2021/09/02 06:58:48;;;;;;;156.25;28.10;;;;;;;-145.01;100.00;64805.59;4995619;28;20023;-64
2021/09/02 07:01:14;;;;;;;163.70;29.08;;;;;;;-145.01;100.00;64805.59;4977894;28;20069;-64
2021/09/02 07:03:40;;;;;;;120.13;28.50;;;;;;;-145.01;100.00;64805.59;4995692;28;20027;-64
2021/09/02 07:06:06;;;;;;;235.07;29.77;;;;;;;-145.01;100.00;64805.59;4994944;28;20046;-64
2021/09/02 07:08:33;;;;;;;99.13;27.08;;;;;;;-145.01;100.00;64805.59;4994161;28;20101;-64
2021/09/02 07:10:58;;;;;;;119.78;25.75;;;;;;;-145.01;100.00;64805.59;4994951;28;20049;-64
2021/09/02 07:13:23;;;;;;;85.15;25.52;;;;;;;-145.01;100.00;64805.59;4994222;28;20023;-64
2021/09/02 07:15:49;;;;;;;109.00;27.08;;;;;;;-145.01;100.00;64805.59;4995246;28;20030;-64
2021/09/02 07:18:14;;;;;;;111.20;25.65;;;;;;;-145.01;100.00;64805.59;4994054;28;20492;-64
2021/09/02 07:20:40;;;;;;;84.05;24.10;;;;;;;-145.01;100.00;64805.59;4995156;28;20047;-64
2021/09/02 07:23:05;;;;;;;119.35;25.17;;;;;;;-145.01;100.00;64805.59;4994012;28;20023;-65
2021/09/02 07:25:31;;;;;;;104.40;27.83;;;;;;;-145.01;100.00;64805.59;4994682;28;20038;-65
2021/09/02 07:27:57;;;;;;;113.22;29.67;;;;;;;-145.01;100.00;64805.59;4994065;28;20023;-65
2021/09/02 07:30:22;;;;;;;104.05;27.20;;;;;;;-145.01;100.00;64805.59;4994868;28;20030;-65
2021/09/02 07:32:48;;;;;;;88.65;27.40;;;;;;;-145.01;100.00;64805.59;4994962;28;20026;-65
2021/09/02 07:35:13;;;;;;;112.68;27.88;;;;;;;-145.01;100.00;64805.59;4994548;28;20409;-65
2021/09/02 07:37:39;;;;;;;101.72;28.52;;;;;;;-145.01;100.00;64805.59;4994931;28;20034;-65
2021/09/02 07:40:04;;;;;;;96.15;29.63;;;;;;;-145.01;100.00;64805.59;4976819;28;20371;-65
2021/09/02 07:42:30;;;;;;;78.22;25.20;;;;;;;-145.01;100.00;64805.59;4994795;28;20026;-65
2021/09/02 07:44:57;;;;;;;101.57;28.75;;;;;;;-145.01;100.00;64805.59;4995040;28;20034;-65
2021/09/02 07:47:23;;;;;;;97.95;28.25;;;;;;;-145.01;100.00;64805.59;4994481;28;20038;-65
2021/09/02 07:49:48;;;;;;;74.70;25.90;;;;;;;-145.01;100.00;64805.59;4994994;28;20027;-65
2021/09/02 07:52:14;;;;;;;70.03;26.83;;;;;;;-145.01;100.00;64805.59;4993052;28;20034;-65
2021/09/02 07:54:39;;;;;;;63.25;23.65;;;;;;;-145.01;100.00;64805.59;4994382;28;20389;-66
2021/09/02 07:57:05;;;;;;;70.80;25.85;;;;;;;-145.01;100.00;64805.59;4994178;28;20067;-65
2021/09/02 07:59:30;;;;;;;76.22;27.02;;;;;;;-145.01;100.00;64805.59;4993359;28;20073;-65
2021/09/02 08:01:55;;;;;;;61.90;24.58;;;;;;;-145.01;100.00;64805.59;4994423;28;20039;-65
2021/09/02 08:04:21;;;;;;;70.30;25.83;;;;;;;-145.01;100.00;64805.59;4994595;28;20034;-66
2021/09/02 08:06:47;;;;;;;78.85;26.08;;;;;;;-145.01;100.00;64805.59;4994233;28;20047;-65
2021/09/02 08:09:13;;;;;;;71.63;25.73;;;;;;;-145.01;100.00;64805.59;4993511;28;20488;-65
2021/09/02 08:11:41;;;;;;;78.05;26.67;;;;;;;-145.01;100.00;64805.59;4993954;28;20038;-65
2021/09/02 08:14:07;;;;;;;70.15;25.30;;;;;;;-145.01;100.00;64805.59;4993053;28;20042;-65
2021/09/02 08:16:32;;;;;;;71.35;25.83;;;;;;;-145.01;100.00;64805.59;4991848;28;20042;-65
2021/09/02 08:18:58;;;;;;;75.07;25.30;;;;;;;-145.01;100.00;64805.59;4994821;28;20367;-65
2021/09/02 08:21:24;;;;;;;69.80;26.52;;;;;;;-145.01;100.00;64805.59;4994050;28;20092;-65
2021/09/02 08:23:50;;;;;;;68.10;26.63;;;;;;;-145.01;100.00;64805.59;4994363;28;20105;-65
2021/09/02 08:26:16;;;;;;;71.00;25.45;;;;;;;-145.01;100.00;64805.59;4992499;28;20132;-64
2021/09/02 08:28:41;;;;;;;75.80;28.02;;;;;;;-145.01;100.00;64805.59;4994399;28;20409;-65
2021/09/02 08:31:06;;;;;;;66.68;24.95;;;;;;;-145.01;100.00;64805.59;4993854;28;20059;-65
2021/09/02 08:33:32;;;;;;;60.25;25.73;;;;;;;-145.01;100.00;64805.59;4993931;28;20475;-65
2021/09/02 08:35:57;;;;;;;57.13;24.50;;;;;;;-145.01;100.00;64805.59;4993413;28;20485;-65
2021/09/02 08:38:23;;;;;;;61.40;24.63;;;;;;;-145.01;100.00;64805.59;4993850;28;20022;-65
2021/09/02 08:40:48;;;;;;;67.20;25.38;;;;;;;-145.01;100.00;64805.59;4993430;28;20084;-65
2021/09/02 08:43:14;;;;;;;59.47;24.33;;;;;;;-145.01;100.00;64805.59;4992903;28;20022;-65
2021/09/02 08:45:39;;;;;;;68.57;25.27;;;;;;;-145.01;100.00;64805.59;4993623;28;20038;-65
2021/09/02 08:48:05;;;;;;;58.58;24.00;;;;;;;-145.01;100.00;64805.59;4992868;28;20500;-65
2021/09/02 08:50:37;;;;;;;64.35;26.45;;;;;;;-145.01;100.00;64805.59;4993321;28;20031;-65
2021/09/02 08:53:02;;;;;;;68.75;24.92;;;;;;;-145.01;100.00;64805.59;4993675;28;20019;-65
2021/09/02 08:55:28;;;;;;;75.28;25.60;;;;;;;-145.01;100.00;64805.59;4993534;28;20061;-65
2021/09/02 08:57:54;;;;;;;51.42;23.98;;;;;;;-145.01;100.00;64805.59;4993455;28;20350;-65
2021/09/02 09:00:20;;;;;;;58.50;23.95;;;;;;;-145.01;100.00;64805.59;4991852;28;20027;-65
2021/09/02 09:02:47;;;;;;;62.80;23.33;;;;;;;-145.01;100.00;64805.59;4993751;28;20492;-66
2021/09/02 09:05:17;;;;;;;64.97;23.42;;;;;;;-145.01;100.00;64805.59;4993355;28;20018;-65
2021/09/02 09:07:46;;;;;;;55.60;22.50;;;;;;;-145.01;100.00;64805.59;4993526;28;20033;-65
2021/09/02 09:10:17;;;;;;;53.00;23.17;;;;;;;-145.01;100.00;64805.59;4991821;28;20097;-66
2021/09/02 09:13:09;;;;;;;54.78;24.00;;;;;;;-145.01;100.00;64805.59;4993556;28;20030;-65
2021/09/02 09:15:39;;;;;;;56.03;23.10;;;;;;;-145.01;100.00;64805.59;4991885;28;20046;-65
2021/09/02 09:18:18;;;;;;;51.15;22.88;;;;;;;-145.01;100.00;64805.59;4993301;28;20533;-65
2021/09/02 09:20:45;;;;;;;46.70;21.80;;;;;;;-145.01;100.00;64805.59;4993255;28;20035;-65
2021/09/02 09:23:10;;;;;;;41.22;20.88;;;;;;;-145.01;100.00;64805.59;4993401;28;20025;-66
2021/09/02 09:25:36;;;;;;;42.67;20.85;;;;;;;-145.01;100.00;64805.59;4993382;28;20038;-66
2021/09/02 09:28:01;;;;;;;46.65;21.80;;;;;;;-145.01;100.00;64805.59;4996178;28;20022;-66
2021/09/02 09:30:27;;;;;;;48.65;22.92;;;;;;;-145.01;100.00;64805.59;4996893;28;20081;-65
2021/09/02 09:32:53;;;;;;;54.38;22.25;;;;;;;-145.01;100.00;64805.59;4997458;28;20037;-65
2021/09/02 09:35:25;;;;;;;48.83;22.20;;;;;;;-145.01;100.00;64805.59;4996799;28;20027;-65
2021/09/02 09:38:04;;;;;;;47.78;21.42;;;;;;;-145.01;100.00;64805.59;4996971;28;20065;-66
2021/09/02 09:40:30;;;;;;;48.42;21.52;;;;;;;-145.01;100.00;64805.59;4995665;28;20073;-66
2021/09/02 09:43:01;;;;;;;53.50;20.60;;;;;;;-145.01;100.00;64805.59;4996918;28;20420;-66
2021/09/02 09:45:35;;;;;;;51.13;20.50;;;;;;;-145.01;100.00;64805.59;4995318;28;20061;-65
2021/09/02 09:48:00;;;;;;;48.45;19.85;;;;;;;-145.01;100.00;64805.59;4996954;28;20030;-66
2021/09/02 09:50:26;;;;;;;41.33;18.80;;;;;;;-145.01;100.00;64805.59;4996483;28;20346;-66
2021/09/02 09:52:51;;;;;;;36.53;19.60;;;;;;;-145.01;100.00;64805.59;4996848;28;20022;-66
2021/09/02 09:55:17;;;;;;;39.85;17.98;;;;;;;-145.01;100.00;64805.59;4996355;28;20389;-66
2021/09/02 09:57:43;;;;;;;44.85;19.80;;;;;;;-145.01;100.00;64805.59;4996763;28;20038;-66
2021/09/02 10:00:14;;;;;;;41.70;19.13;;;;;;;-145.01;100.00;64805.59;4996405;28;20085;-66
2021/09/02 10:02:41;;;;;;;41.38;18.60;;;;;;;-145.01;100.00;64805.59;4996650;28;20026;-66
2021/09/02 10:05:09;;;;;;;53.15;17.85;;;;;;;-145.01;100.00;64805.59;4996256;28;20018;-66
2021/09/02 10:07:35;;;;;;;36.35;18.60;;;;;;;-145.01;100.00;64805.59;4996662;28;20496;-66
2021/09/02 10:10:01;;;;;;;42.97;18.25;;;;;;;-145.01;100.00;64805.59;4995263;28;20046;-66
2021/09/02 10:12:26;;;;;;;35.75;15.70;;;;;;;-145.01;100.00;64805.59;4996355;28;20120;-67
2021/09/02 10:14:53;;;;;;;46.47;16.48;;;;;;;-145.01;100.00;64805.59;4996791;28;20477;-66
2021/09/02 10:17:18;;;;;;;41.47;17.50;;;;;;;-145.01;100.00;64805.59;4996059;28;20054;-67
2021/09/02 10:19:44;;;;;;;39.33;17.00;;;;;;;-145.01;100.00;64805.59;4996692;28;20081;-67
2021/09/02 10:22:11;;;;;;;50.22;16.77;;;;;;;-145.01;100.00;64805.59;4994885;28;20389;-67
2021/09/02 10:24:41;;;;;;;41.85;15.88;;;;;;;-145.01;100.00;64805.59;4979259;28;20118;-66
2021/09/02 10:27:15;;;;;;;;;;;;;;;-145.01;100.00;64805.59;4995149;28;20039;-64
2021/09/02 10:29:40;;;;;;;33.08;13.93;;;;;;;-145.01;100.00;64805.59;5027873;28;19921;-65
2021/09/02 10:32:24;;;;;;;35.65;14.27;;;;;;;-145.01;100.00;64805.59;4995992;28;20039;-66
2021/09/02 10:34:50;;;;;;;23.80;13.68;;;;;;;-145.01;100.00;64805.59;4996199;28;20022;-66
2021/09/02 10:37:36;;;;;;;27.30;14.38;;;;;;;-145.01;100.00;64805.59;4995066;28;20039;-65
2021/09/02 10:40:09;;;;;;;24.85;14.18;;;;;;;-145.01;100.00;64805.59;4991569;28;20456;-65
2021/09/02 10:42:41;;;;;;;28.45;13.13;;;;;;;-145.01;100.00;64805.59;4994828;28;20015;-65
2021/09/02 10:45:27;;;;;;;25.60;13.82;;;;;;;-145.01;100.00;64805.59;4995578;28;20022;-64